sensor_id;sensor_type;location;lat;lon;timestamp;P1;durP1;ratioP1;P2;durP2;ratioP2
39896;SDS011;25567;48.276;14.242;2022-09-09T00:00:38;14.90;;;3.15;;
39896;SDS011;25567;48.276;14.242;2022-09-09T00:03:15;28.98;;;3.25;;
39896;SDS011;25567;48.276;14.242;2022-09-09T00:08:40;13.57;;;3.25;;
39896;SDS011;25567;48.276;14.242;2022-09-09T00:11:28;13.85;;;3.67;;
39896;SDS011;25567;48.276;14.242;2022-09-09T00:14:03;15.05;;;3.75;;
39896;SDS011;25567;48.276;14.242;2022-09-09T00:16:40;18.75;;;3.33;;
39896;SDS011;25567;48.276;14.242;2022-09-09T00:19:15;8.60;;;2.58;;
39896;SDS011;25567;48.276;14.242;2022-09-09T00:21:55;7.40;;;2.70;;
39896;SDS011;25567;48.276;14.242;2022-09-09T00:24:24;17.10;;;3.25;;
39896;SDS011;25567;48.276;14.242;2022-09-09T00:26:57;9.35;;;2.97;;
39896;SDS011;25567;48.276;14.242;2022-09-09T00:29:35;6.75;;;2.92;;
39896;SDS011;25567;48.276;14.242;2022-09-09T00:32:13;12.18;;;4.20;;
39896;SDS011;25567;48.276;14.242;2022-09-09T00:34:49;11.55;;;3.08;;
39896;SDS011;25567;48.276;14.242;2022-09-09T00:37:20;12.90;;;3.78;;
39896;SDS011;25567;48.276;14.242;2022-09-09T00:39:48;14.82;;;4.30;;
39896;SDS011;25567;48.276;14.242;2022-09-09T00:42:20;12.88;;;4.10;;
39896;SDS011;25567;48.276;14.242;2022-09-09T00:44:59;10.40;;;4.00;;
39896;SDS011;25567;48.276;14.242;2022-09-09T00:55:54;11.15;;;4.28;;
39896;SDS011;25567;48.276;14.242;2022-09-09T00:58:34;11.23;;;4.10;;
39896;SDS011;25567;48.276;14.242;2022-09-09T01:01:04;23.83;;;4.18;;
39896;SDS011;25567;48.276;14.242;2022-09-09T01:06:27;11.77;;;4.38;;
39896;SDS011;25567;48.276;14.242;2022-09-09T01:09:02;13.18;;;4.10;;
39896;SDS011;25567;48.276;14.242;2022-09-09T01:14:24;12.82;;;4.68;;
39896;SDS011;25567;48.276;14.242;2022-09-09T01:17:02;16.10;;;5.18;;
39896;SDS011;25567;48.276;14.242;2022-09-09T01:19:36;13.10;;;4.47;;
39896;SDS011;25567;48.276;14.242;2022-09-09T01:22:15;13.43;;;4.78;;
39896;SDS011;25567;48.276;14.242;2022-09-09T01:24:51;11.30;;;4.50;;
39896;SDS011;25567;48.276;14.242;2022-09-09T01:27:40;14.60;;;4.50;;
39896;SDS011;25567;48.276;14.242;2022-09-09T01:30:11;16.13;;;5.05;;
39896;SDS011;25567;48.276;14.242;2022-09-09T01:35:13;21.33;;;5.80;;
39896;SDS011;25567;48.276;14.242;2022-09-09T01:37:50;17.42;;;6.15;;
39896;SDS011;25567;48.276;14.242;2022-09-09T01:40:17;23.52;;;7.60;;
39896;SDS011;25567;48.276;14.242;2022-09-09T01:42:44;28.90;;;6.78;;
39896;SDS011;25567;48.276;14.242;2022-09-09T01:45:10;39.05;;;8.35;;
39896;SDS011;25567;48.276;14.242;2022-09-09T01:47:37;35.92;;;10.23;;
39896;SDS011;25567;48.276;14.242;2022-09-09T01:50:04;34.97;;;9.00;;
39896;SDS011;25567;48.276;14.242;2022-09-09T01:52:39;43.55;;;10.07;;
39896;SDS011;25567;48.276;14.242;2022-09-09T01:55:06;38.60;;;9.02;;
39896;SDS011;25567;48.276;14.242;2022-09-09T01:57:38;30.08;;;9.45;;
39896;SDS011;25567;48.276;14.242;2022-09-09T02:00:14;30.58;;;8.25;;
39896;SDS011;25567;48.276;14.242;2022-09-09T02:08:11;26.88;;;8.68;;
39896;SDS011;25567;48.276;14.242;2022-09-09T02:10:50;24.85;;;9.05;;
39896;SDS011;25567;48.276;14.242;2022-09-09T02:13:25;29.88;;;9.25;;
39896;SDS011;25567;48.276;14.242;2022-09-09T02:15:53;31.50;;;8.70;;
39896;SDS011;25567;48.276;14.242;2022-09-09T02:18:28;30.83;;;9.20;;
39896;SDS011;25567;48.276;14.242;2022-09-09T02:21:04;38.67;;;9.00;;
39896;SDS011;25567;48.276;14.242;2022-09-09T02:23:33;36.38;;;8.30;;
39896;SDS011;25567;48.276;14.242;2022-09-09T02:26:02;25.08;;;8.57;;
39896;SDS011;25567;48.276;14.242;2022-09-09T02:28:31;38.58;;;9.35;;
39896;SDS011;25567;48.276;14.242;2022-09-09T02:31:01;30.55;;;10.70;;
39896;SDS011;25567;48.276;14.242;2022-09-09T02:33:30;34.00;;;10.95;;
39896;SDS011;25567;48.276;14.242;2022-09-09T02:36:02;36.75;;;11.52;;
39896;SDS011;25567;48.276;14.242;2022-09-09T02:38:34;35.17;;;10.85;;
39896;SDS011;25567;48.276;14.242;2022-09-09T02:41:06;25.88;;;11.05;;
39896;SDS011;25567;48.276;14.242;2022-09-09T02:43:33;27.17;;;11.95;;
39896;SDS011;25567;48.276;14.242;2022-09-09T02:51:19;21.15;;;10.07;;
39896;SDS011;25567;48.276;14.242;2022-09-09T02:56:26;17.27;;;9.07;;
39896;SDS011;25567;48.276;14.242;2022-09-09T02:58:56;21.77;;;10.45;;
39896;SDS011;25567;48.276;14.242;2022-09-09T03:01:22;23.55;;;10.10;;
39896;SDS011;25567;48.276;14.242;2022-09-09T03:03:49;24.10;;;9.77;;
39896;SDS011;25567;48.276;14.242;2022-09-09T03:06:16;17.85;;;9.05;;
39896;SDS011;25567;48.276;14.242;2022-09-09T03:08:42;22.27;;;9.80;;
39896;SDS011;25567;48.276;14.242;2022-09-09T03:11:15;29.80;;;11.15;;
39896;SDS011;25567;48.276;14.242;2022-09-09T03:13:43;28.85;;;9.25;;
39896;SDS011;25567;48.276;14.242;2022-09-09T03:16:09;35.17;;;11.68;;
39896;SDS011;25567;48.276;14.242;2022-09-09T03:18:36;46.75;;;11.75;;
39896;SDS011;25567;48.276;14.242;2022-09-09T03:21:03;30.83;;;12.25;;
39896;SDS011;25567;48.276;14.242;2022-09-09T03:23:29;47.17;;;12.93;;
39896;SDS011;25567;48.276;14.242;2022-09-09T03:25:56;33.95;;;11.85;;
39896;SDS011;25567;48.276;14.242;2022-09-09T03:28:24;50.92;;;12.43;;
39896;SDS011;25567;48.276;14.242;2022-09-09T03:30:58;48.65;;;12.90;;
39896;SDS011;25567;48.276;14.242;2022-09-09T03:33:26;38.17;;;11.02;;
39896;SDS011;25567;48.276;14.242;2022-09-09T03:35:53;60.92;;;12.60;;
39896;SDS011;25567;48.276;14.242;2022-09-09T03:38:23;57.13;;;12.98;;
39896;SDS011;25567;48.276;14.242;2022-09-09T03:40:50;30.40;;;11.25;;
39896;SDS011;25567;48.276;14.242;2022-09-09T03:43:21;29.02;;;11.80;;
39896;SDS011;25567;48.276;14.242;2022-09-09T03:45:49;21.38;;;10.57;;
39896;SDS011;25567;48.276;14.242;2022-09-09T03:48:17;28.92;;;10.88;;
39896;SDS011;25567;48.276;14.242;2022-09-09T03:50:48;39.75;;;10.70;;
39896;SDS011;25567;48.276;14.242;2022-09-09T03:53:17;38.78;;;11.27;;
39896;SDS011;25567;48.276;14.242;2022-09-09T03:55:45;60.03;;;10.98;;
39896;SDS011;25567;48.276;14.242;2022-09-09T03:58:14;35.20;;;10.75;;
39896;SDS011;25567;48.276;14.242;2022-09-09T04:00:41;70.65;;;12.20;;
39896;SDS011;25567;48.276;14.242;2022-09-09T04:03:11;33.63;;;10.98;;
39896;SDS011;25567;48.276;14.242;2022-09-09T04:05:39;28.17;;;11.68;;
39896;SDS011;25567;48.276;14.242;2022-09-09T04:08:08;172.43;;;15.40;;
39896;SDS011;25567;48.276;14.242;2022-09-09T04:10:35;23.08;;;11.05;;
39896;SDS011;25567;48.276;14.242;2022-09-09T04:13:04;18.92;;;9.73;;
39896;SDS011;25567;48.276;14.242;2022-09-09T04:15:31;22.35;;;10.10;;
39896;SDS011;25567;48.276;14.242;2022-09-09T04:17:58;21.05;;;10.05;;
39896;SDS011;25567;48.276;14.242;2022-09-09T04:20:25;55.53;;;11.57;;
39896;SDS011;25567;48.276;14.242;2022-09-09T04:22:51;35.00;;;10.48;;
39896;SDS011;25567;48.276;14.242;2022-09-09T04:25:18;26.17;;;10.43;;
39896;SDS011;25567;48.276;14.242;2022-09-09T04:27:44;48.40;;;10.85;;
39896;SDS011;25567;48.276;14.242;2022-09-09T04:30:11;31.15;;;10.23;;
39896;SDS011;25567;48.276;14.242;2022-09-09T04:32:38;38.15;;;11.07;;
39896;SDS011;25567;48.276;14.242;2022-09-09T04:35:05;31.75;;;11.05;;
39896;SDS011;25567;48.276;14.242;2022-09-09T04:37:32;51.10;;;12.25;;
39896;SDS011;25567;48.276;14.242;2022-09-09T04:39:59;36.00;;;11.73;;
39896;SDS011;25567;48.276;14.242;2022-09-09T04:42:28;27.48;;;10.95;;
39896;SDS011;25567;48.276;14.242;2022-09-09T04:44:55;51.55;;;10.85;;
39896;SDS011;25567;48.276;14.242;2022-09-09T04:47:21;34.53;;;10.30;;
39896;SDS011;25567;48.276;14.242;2022-09-09T04:49:48;30.48;;;10.48;;
39896;SDS011;25567;48.276;14.242;2022-09-09T04:52:14;26.50;;;10.55;;
39896;SDS011;25567;48.276;14.242;2022-09-09T04:54:43;44.03;;;11.13;;
39896;SDS011;25567;48.276;14.242;2022-09-09T04:57:11;31.60;;;11.85;;
39896;SDS011;25567;48.276;14.242;2022-09-09T04:59:44;20.83;;;10.43;;
39896;SDS011;25567;48.276;14.242;2022-09-09T05:02:10;38.13;;;11.43;;
39896;SDS011;25567;48.276;14.242;2022-09-09T05:04:38;21.00;;;10.75;;
39896;SDS011;25567;48.276;14.242;2022-09-09T05:07:05;22.38;;;10.45;;
39896;SDS011;25567;48.276;14.242;2022-09-09T05:09:32;23.02;;;10.30;;
39896;SDS011;25567;48.276;14.242;2022-09-09T05:11:59;19.13;;;9.18;;
39896;SDS011;25567;48.276;14.242;2022-09-09T05:14:26;15.02;;;8.65;;
39896;SDS011;25567;48.276;14.242;2022-09-09T05:16:53;17.40;;;8.57;;
39896;SDS011;25567;48.276;14.242;2022-09-09T05:19:19;22.85;;;9.25;;
39896;SDS011;25567;48.276;14.242;2022-09-09T05:21:46;16.45;;;8.48;;
39896;SDS011;25567;48.276;14.242;2022-09-09T05:24:13;24.38;;;9.07;;
39896;SDS011;25567;48.276;14.242;2022-09-09T05:26:39;18.25;;;8.63;;
39896;SDS011;25567;48.276;14.242;2022-09-09T05:29:06;33.92;;;10.40;;
39896;SDS011;25567;48.276;14.242;2022-09-09T05:31:34;35.50;;;12.15;;
39896;SDS011;25567;48.276;14.242;2022-09-09T05:34:01;58.72;;;12.32;;
39896;SDS011;25567;48.276;14.242;2022-09-09T05:36:27;40.63;;;11.65;;
39896;SDS011;25567;48.276;14.242;2022-09-09T05:38:54;38.38;;;12.77;;
39896;SDS011;25567;48.276;14.242;2022-09-09T05:41:21;51.53;;;12.73;;
39896;SDS011;25567;48.276;14.242;2022-09-09T05:43:49;51.08;;;12.10;;
39896;SDS011;25567;48.276;14.242;2022-09-09T05:46:17;31.33;;;11.75;;
39896;SDS011;25567;48.276;14.242;2022-09-09T05:48:46;32.15;;;11.68;;
39896;SDS011;25567;48.276;14.242;2022-09-09T05:51:14;28.63;;;12.65;;
39896;SDS011;25567;48.276;14.242;2022-09-09T05:53:43;33.45;;;13.43;;
39896;SDS011;25567;48.276;14.242;2022-09-09T05:56:12;35.65;;;13.25;;
39896;SDS011;25567;48.276;14.242;2022-09-09T05:58:41;35.30;;;14.15;;
39896;SDS011;25567;48.276;14.242;2022-09-09T06:01:16;32.60;;;12.70;;
39896;SDS011;25567;48.276;14.242;2022-09-09T06:03:44;30.98;;;12.75;;
39896;SDS011;25567;48.276;14.242;2022-09-09T06:06:13;30.25;;;12.95;;
39896;SDS011;25567;48.276;14.242;2022-09-09T06:08:43;35.47;;;14.60;;
39896;SDS011;25567;48.276;14.242;2022-09-09T06:11:13;37.17;;;14.38;;
39896;SDS011;25567;48.276;14.242;2022-09-09T06:13:45;40.53;;;15.73;;
39896;SDS011;25567;48.276;14.242;2022-09-09T06:16:15;35.47;;;13.88;;
39896;SDS011;25567;48.276;14.242;2022-09-09T06:18:42;40.13;;;16.70;;
39896;SDS011;25567;48.276;14.242;2022-09-09T06:21:16;39.38;;;16.92;;
39896;SDS011;25567;48.276;14.242;2022-09-09T06:23:43;39.88;;;16.90;;
39896;SDS011;25567;48.276;14.242;2022-09-09T06:26:12;40.38;;;17.17;;
39896;SDS011;25567;48.276;14.242;2022-09-09T06:28:45;42.35;;;17.70;;
39896;SDS011;25567;48.276;14.242;2022-09-09T06:31:14;37.67;;;17.80;;
39896;SDS011;25567;48.276;14.242;2022-09-09T06:33:43;46.95;;;18.10;;
39896;SDS011;25567;48.276;14.242;2022-09-09T06:36:12;50.25;;;18.95;;
39896;SDS011;25567;48.276;14.242;2022-09-09T06:38:41;47.03;;;18.77;;
39896;SDS011;25567;48.276;14.242;2022-09-09T06:41:09;48.58;;;19.85;;
39896;SDS011;25567;48.276;14.242;2022-09-09T06:43:36;53.08;;;22.17;;
39896;SDS011;25567;48.276;14.242;2022-09-09T06:46:05;56.08;;;22.52;;
39896;SDS011;25567;48.276;14.242;2022-09-09T06:48:35;52.55;;;22.45;;
39896;SDS011;25567;48.276;14.242;2022-09-09T06:51:04;57.35;;;23.75;;
39896;SDS011;25567;48.276;14.242;2022-09-09T06:53:32;51.55;;;22.48;;
39896;SDS011;25567;48.276;14.242;2022-09-09T06:56:01;48.17;;;20.88;;
39896;SDS011;25567;48.276;14.242;2022-09-09T06:58:28;61.67;;;21.88;;
39896;SDS011;25567;48.276;14.242;2022-09-09T07:03:39;59.33;;;22.92;;
39896;SDS011;25567;48.276;14.242;2022-09-09T07:06:06;55.60;;;22.70;;
39896;SDS011;25567;48.276;14.242;2022-09-09T07:08:35;46.42;;;21.90;;
39896;SDS011;25567;48.276;14.242;2022-09-09T07:11:03;60.10;;;21.67;;
39896;SDS011;25567;48.276;14.242;2022-09-09T07:13:37;51.15;;;21.83;;
39896;SDS011;25567;48.276;14.242;2022-09-09T07:16:04;57.60;;;22.65;;
39896;SDS011;25567;48.276;14.242;2022-09-09T07:18:32;49.65;;;20.63;;
39896;SDS011;25567;48.276;14.242;2022-09-09T07:21:01;52.13;;;20.60;;
39896;SDS011;25567;48.276;14.242;2022-09-09T07:23:29;44.72;;;20.20;;
39896;SDS011;25567;48.276;14.242;2022-09-09T07:26:02;54.28;;;23.33;;
39896;SDS011;25567;48.276;14.242;2022-09-09T07:28:29;61.55;;;23.88;;
39896;SDS011;25567;48.276;14.242;2022-09-09T07:30:58;50.50;;;22.48;;
39896;SDS011;25567;48.276;14.242;2022-09-09T07:33:29;67.95;;;25.02;;
39896;SDS011;25567;48.276;14.242;2022-09-09T07:36:02;49.97;;;21.30;;
39896;SDS011;25567;48.276;14.242;2022-09-09T07:38:30;48.45;;;21.05;;
39896;SDS011;25567;48.276;14.242;2022-09-09T07:41:05;53.45;;;19.70;;
39896;SDS011;25567;48.276;14.242;2022-09-09T07:43:38;39.40;;;17.88;;
39896;SDS011;25567;48.276;14.242;2022-09-09T07:46:08;41.08;;;18.30;;
39896;SDS011;25567;48.276;14.242;2022-09-09T07:48:36;41.35;;;17.65;;
39896;SDS011;25567;48.276;14.242;2022-09-09T07:51:04;40.03;;;16.40;;
39896;SDS011;25567;48.276;14.242;2022-09-09T07:53:34;43.60;;;17.60;;
39896;SDS011;25567;48.276;14.242;2022-09-09T07:56:06;41.50;;;15.57;;
39896;SDS011;25567;48.276;14.242;2022-09-09T07:58:36;37.72;;;14.98;;
39896;SDS011;25567;48.276;14.242;2022-09-09T08:03:52;36.47;;;13.77;;
39896;SDS011;25567;48.276;14.242;2022-09-09T08:06:22;28.15;;;12.27;;
39896;SDS011;25567;48.276;14.242;2022-09-09T08:08:49;29.95;;;13.18;;
39896;SDS011;25567;48.276;14.242;2022-09-09T08:11:17;36.42;;;14.40;;
39896;SDS011;25567;48.276;14.242;2022-09-09T08:13:44;25.67;;;10.93;;
39896;SDS011;25567;48.276;14.242;2022-09-09T08:16:19;17.58;;;9.80;;
39896;SDS011;25567;48.276;14.242;2022-09-09T08:18:49;19.50;;;8.40;;
39896;SDS011;25567;48.276;14.242;2022-09-09T08:21:17;16.58;;;8.70;;
39896;SDS011;25567;48.276;14.242;2022-09-09T08:23:45;22.88;;;8.98;;
39896;SDS011;25567;48.276;14.242;2022-09-09T08:26:14;18.75;;;8.95;;
39896;SDS011;25567;48.276;14.242;2022-09-09T08:28:43;19.48;;;8.52;;
39896;SDS011;25567;48.276;14.242;2022-09-09T08:31:11;21.48;;;9.43;;
39896;SDS011;25567;48.276;14.242;2022-09-09T08:33:41;23.85;;;9.20;;
39896;SDS011;25567;48.276;14.242;2022-09-09T08:36:09;21.60;;;9.63;;
39896;SDS011;25567;48.276;14.242;2022-09-09T08:38:37;17.48;;;9.15;;
39896;SDS011;25567;48.276;14.242;2022-09-09T08:41:12;29.70;;;12.95;;
39896;SDS011;25567;48.276;14.242;2022-09-09T08:43:43;33.95;;;12.43;;
39896;SDS011;25567;48.276;14.242;2022-09-09T08:46:15;23.63;;;12.27;;
39896;SDS011;25567;48.276;14.242;2022-09-09T08:48:50;34.88;;;16.27;;
39896;SDS011;25567;48.276;14.242;2022-09-09T08:51:18;67.38;;;29.00;;
39896;SDS011;25567;48.276;14.242;2022-09-09T08:53:47;80.18;;;34.92;;
39896;SDS011;25567;48.276;14.242;2022-09-09T08:56:16;87.40;;;37.35;;
39896;SDS011;25567;48.276;14.242;2022-09-09T08:58:49;80.00;;;35.10;;
39896;SDS011;25567;48.276;14.242;2022-09-09T09:01:28;83.75;;;37.10;;
39896;SDS011;25567;48.276;14.242;2022-09-09T09:04:11;81.53;;;34.95;;
39896;SDS011;25567;48.276;14.242;2022-09-09T09:12:21;67.45;;;31.88;;
39896;SDS011;25567;48.276;14.242;2022-09-09T09:14:50;84.10;;;33.05;;
39896;SDS011;25567;48.276;14.242;2022-09-09T09:17:19;80.97;;;33.90;;
39896;SDS011;25567;48.276;14.242;2022-09-09T09:19:47;85.57;;;36.35;;
39896;SDS011;25567;48.276;14.242;2022-09-09T09:27:13;79.95;;;33.97;;
39896;SDS011;25567;48.276;14.242;2022-09-09T09:29:42;75.57;;;32.00;;
39896;SDS011;25567;48.276;14.242;2022-09-09T09:32:31;81.00;;;32.67;;
39896;SDS011;25567;48.276;14.242;2022-09-09T09:35:00;81.68;;;32.78;;
39896;SDS011;25567;48.276;14.242;2022-09-09T09:37:31;76.05;;;31.85;;
39896;SDS011;25567;48.276;14.242;2022-09-09T09:40:09;81.53;;;31.60;;
39896;SDS011;25567;48.276;14.242;2022-09-09T09:42:37;73.95;;;31.60;;
39896;SDS011;25567;48.276;14.242;2022-09-09T09:45:18;83.95;;;32.50;;
39896;SDS011;25567;48.276;14.242;2022-09-09T09:47:58;75.40;;;31.75;;
39896;SDS011;25567;48.276;14.242;2022-09-09T09:50:32;75.45;;;30.20;;
39896;SDS011;25567;48.276;14.242;2022-09-09T09:53:03;86.53;;;34.60;;
39896;SDS011;25567;48.276;14.242;2022-09-09T09:55:31;73.45;;;29.67;;
39896;SDS011;25567;48.276;14.242;2022-09-09T09:58:02;47.00;;;19.45;;
39896;SDS011;25567;48.276;14.242;2022-09-09T10:00:36;32.30;;;14.85;;
39896;SDS011;25567;48.276;14.242;2022-09-09T10:03:12;37.20;;;15.68;;
39896;SDS011;25567;48.276;14.242;2022-09-09T10:05:47;34.50;;;15.88;;
39896;SDS011;25567;48.276;14.242;2022-09-09T10:08:14;31.83;;;14.35;;
39896;SDS011;25567;48.276;14.242;2022-09-09T10:13:51;33.58;;;13.88;;
39896;SDS011;25567;48.276;14.242;2022-09-09T10:18:59;30.95;;;13.98;;
39896;SDS011;25567;48.276;14.242;2022-09-09T10:21:43;35.65;;;15.40;;
39896;SDS011;25567;48.276;14.242;2022-09-09T10:30:10;19.48;;;10.35;;
39896;SDS011;25567;48.276;14.242;2022-09-09T10:32:47;14.80;;;8.63;;
39896;SDS011;25567;48.276;14.242;2022-09-09T10:40:44;39.83;;;19.02;;
39896;SDS011;25567;48.276;14.242;2022-09-09T10:51:55;29.65;;;16.17;;
39896;SDS011;25567;48.276;14.242;2022-09-09T10:54:31;31.08;;;16.25;;
39896;SDS011;25567;48.276;14.242;2022-09-09T11:00:02;35.17;;;17.08;;
39896;SDS011;25567;48.276;14.242;2022-09-09T11:02:33;30.73;;;18.02;;
39896;SDS011;25567;48.276;14.242;2022-09-09T11:05:02;27.65;;;16.30;;
39896;SDS011;25567;48.276;14.242;2022-09-09T11:07:38;25.52;;;15.63;;
39896;SDS011;25567;48.276;14.242;2022-09-09T11:10:16;31.92;;;15.95;;
39896;SDS011;25567;48.276;14.242;2022-09-09T11:13:02;30.88;;;15.95;;
39896;SDS011;25567;48.276;14.242;2022-09-09T11:15:35;30.05;;;16.77;;
39896;SDS011;25567;48.276;14.242;2022-09-09T11:18:09;29.58;;;17.73;;
39896;SDS011;25567;48.276;14.242;2022-09-09T11:23:12;27.50;;;16.08;;
39896;SDS011;25567;48.276;14.242;2022-09-09T11:25:44;27.10;;;17.05;;
39896;SDS011;25567;48.276;14.242;2022-09-09T11:36:43;24.90;;;16.30;;
39896;SDS011;25567;48.276;14.242;2022-09-09T11:42:20;31.80;;;16.73;;
39896;SDS011;25567;48.276;14.242;2022-09-09T11:44:50;33.40;;;16.73;;
39896;SDS011;25567;48.276;14.242;2022-09-09T11:47:24;31.05;;;16.80;;
39896;SDS011;25567;48.276;14.242;2022-09-09T11:49:52;30.77;;;17.13;;
39896;SDS011;25567;48.276;14.242;2022-09-09T11:52:21;34.15;;;18.23;;
39896;SDS011;25567;48.276;14.242;2022-09-09T11:55:10;34.80;;;18.73;;
39896;SDS011;25567;48.276;14.242;2022-09-09T11:58:00;29.77;;;16.73;;
39896;SDS011;25567;48.276;14.242;2022-09-09T12:00:37;31.60;;;17.83;;
39896;SDS011;25567;48.276;14.242;2022-09-09T12:03:30;32.97;;;17.83;;
39896;SDS011;25567;48.276;14.242;2022-09-09T12:06:10;27.70;;;16.63;;
39896;SDS011;25567;48.276;14.242;2022-09-09T12:08:51;33.10;;;17.13;;
39896;SDS011;25567;48.276;14.242;2022-09-09T12:11:26;30.30;;;17.27;;
39896;SDS011;25567;48.276;14.242;2022-09-09T12:13:55;31.88;;;16.10;;
39896;SDS011;25567;48.276;14.242;2022-09-09T12:16:27;24.98;;;14.73;;
39896;SDS011;25567;48.276;14.242;2022-09-09T12:19:05;23.80;;;14.13;;
39896;SDS011;25567;48.276;14.242;2022-09-09T12:21:51;25.50;;;13.77;;
39896;SDS011;25567;48.276;14.242;2022-09-09T12:24:30;25.15;;;12.93;;
39896;SDS011;25567;48.276;14.242;2022-09-09T12:32:24;18.35;;;10.20;;
39896;SDS011;25567;48.276;14.242;2022-09-09T12:40:05;21.20;;;10.63;;
39896;SDS011;25567;48.276;14.242;2022-09-09T12:42:32;20.10;;;10.52;;
39896;SDS011;25567;48.276;14.242;2022-09-09T12:45:14;15.45;;;9.13;;
39896;SDS011;25567;48.276;14.242;2022-09-09T12:52:44;13.93;;;7.75;;
39896;SDS011;25567;48.276;14.242;2022-09-09T12:55:16;16.10;;;8.90;;
39896;SDS011;25567;48.276;14.242;2022-09-09T12:57:48;16.17;;;8.48;;
39896;SDS011;25567;48.276;14.242;2022-09-09T13:02:47;21.45;;;9.10;;
39896;SDS011;25567;48.276;14.242;2022-09-09T13:05:24;21.10;;;8.95;;
39896;SDS011;25567;48.276;14.242;2022-09-09T13:08:02;21.20;;;9.98;;
39896;SDS011;25567;48.276;14.242;2022-09-09T13:10:32;17.27;;;9.07;;
39896;SDS011;25567;48.276;14.242;2022-09-09T13:13:23;19.67;;;9.77;;
39896;SDS011;25567;48.276;14.242;2022-09-09T13:15:54;22.00;;;9.85;;
39896;SDS011;25567;48.276;14.242;2022-09-09T13:18:28;20.92;;;10.27;;
39896;SDS011;25567;48.276;14.242;2022-09-09T13:20:58;22.10;;;10.55;;
39896;SDS011;25567;48.276;14.242;2022-09-09T13:23:26;21.67;;;10.82;;
39896;SDS011;25567;48.276;14.242;2022-09-09T13:25:56;21.05;;;10.57;;
39896;SDS011;25567;48.276;14.242;2022-09-09T13:28:25;19.92;;;9.55;;
39896;SDS011;25567;48.276;14.242;2022-09-09T13:31:00;19.88;;;10.27;;
39896;SDS011;25567;48.276;14.242;2022-09-09T13:33:32;20.33;;;10.52;;
39896;SDS011;25567;48.276;14.242;2022-09-09T13:36:03;16.27;;;9.63;;
39896;SDS011;25567;48.276;14.242;2022-09-09T13:38:35;19.05;;;10.63;;
39896;SDS011;25567;48.276;14.242;2022-09-09T13:41:05;20.10;;;10.55;;
39896;SDS011;25567;48.276;14.242;2022-09-09T13:43:36;20.13;;;10.75;;
39896;SDS011;25567;48.276;14.242;2022-09-09T13:46:04;22.90;;;10.88;;
39896;SDS011;25567;48.276;14.242;2022-09-09T13:48:56;20.88;;;11.15;;
39896;SDS011;25567;48.276;14.242;2022-09-09T13:51:30;17.25;;;11.10;;
39896;SDS011;25567;48.276;14.242;2022-09-09T13:54:04;20.65;;;11.43;;
39896;SDS011;25567;48.276;14.242;2022-09-09T13:56:33;29.20;;;12.55;;
39896;SDS011;25567;48.276;14.242;2022-09-09T13:59:02;23.73;;;12.60;;
39896;SDS011;25567;48.276;14.242;2022-09-09T14:01:30;21.52;;;12.68;;
39896;SDS011;25567;48.276;14.242;2022-09-09T14:03:57;22.55;;;13.48;;
39896;SDS011;25567;48.276;14.242;2022-09-09T14:06:25;21.65;;;13.88;;
39896;SDS011;25567;48.276;14.242;2022-09-09T14:08:52;25.58;;;13.27;;
39896;SDS011;25567;48.276;14.242;2022-09-09T14:11:21;21.40;;;12.00;;
39896;SDS011;25567;48.276;14.242;2022-09-09T14:13:48;22.30;;;12.52;;
39896;SDS011;25567;48.276;14.242;2022-09-09T14:16:19;20.98;;;11.68;;
39896;SDS011;25567;48.276;14.242;2022-09-09T14:18:47;22.60;;;12.65;;
39896;SDS011;25567;48.276;14.242;2022-09-09T14:21:14;23.98;;;12.98;;
39896;SDS011;25567;48.276;14.242;2022-09-09T14:23:41;21.35;;;11.73;;
39896;SDS011;25567;48.276;14.242;2022-09-09T14:26:11;22.77;;;11.95;;
39896;SDS011;25567;48.276;14.242;2022-09-09T14:28:39;22.67;;;11.65;;
39896;SDS011;25567;48.276;14.242;2022-09-09T14:31:22;17.45;;;10.13;;
39896;SDS011;25567;48.276;14.242;2022-09-09T14:33:50;20.25;;;10.55;;
39896;SDS011;25567;48.276;14.242;2022-09-09T14:36:17;18.92;;;10.35;;
39896;SDS011;25567;48.276;14.242;2022-09-09T14:38:44;17.73;;;10.27;;
39896;SDS011;25567;48.276;14.242;2022-09-09T14:41:11;21.40;;;10.45;;
39896;SDS011;25567;48.276;14.242;2022-09-09T14:43:44;19.80;;;10.30;;
39896;SDS011;25567;48.276;14.242;2022-09-09T14:46:11;20.60;;;9.73;;
39896;SDS011;25567;48.276;14.242;2022-09-09T14:48:40;15.45;;;9.82;;
39896;SDS011;25567;48.276;14.242;2022-09-09T14:51:08;19.92;;;9.75;;
39896;SDS011;25567;48.276;14.242;2022-09-09T14:53:39;17.73;;;9.57;;
39896;SDS011;25567;48.276;14.242;2022-09-09T14:56:07;16.80;;;9.35;;
39896;SDS011;25567;48.276;14.242;2022-09-09T14:58:36;20.55;;;9.20;;
39896;SDS011;25567;48.276;14.242;2022-09-09T15:03:31;17.10;;;7.93;;
39896;SDS011;25567;48.276;14.242;2022-09-09T15:05:58;18.25;;;8.55;;
39896;SDS011;25567;48.276;14.242;2022-09-09T15:08:24;12.77;;;7.07;;
39896;SDS011;25567;48.276;14.242;2022-09-09T15:10:58;10.93;;;6.43;;
39896;SDS011;25567;48.276;14.242;2022-09-09T15:13:26;11.77;;;6.78;;
39896;SDS011;25567;48.276;14.242;2022-09-09T15:15:53;13.75;;;7.10;;
39896;SDS011;25567;48.276;14.242;2022-09-09T15:18:20;8.43;;;4.85;;
39896;SDS011;25567;48.276;14.242;2022-09-09T15:20:47;14.65;;;5.32;;
39896;SDS011;25567;48.276;14.242;2022-09-09T15:23:14;13.95;;;5.80;;
39896;SDS011;25567;48.276;14.242;2022-09-09T15:28:25;8.55;;;4.57;;
39896;SDS011;25567;48.276;14.242;2022-09-09T15:30:52;10.40;;;5.53;;
39896;SDS011;25567;48.276;14.242;2022-09-09T15:33:20;11.20;;;6.32;;
39896;SDS011;25567;48.276;14.242;2022-09-09T15:35:48;14.93;;;6.80;;
39896;SDS011;25567;48.276;14.242;2022-09-09T15:38:16;15.13;;;7.05;;
39896;SDS011;25567;48.276;14.242;2022-09-09T15:40:45;14.60;;;7.20;;
39896;SDS011;25567;48.276;14.242;2022-09-09T15:43:20;17.02;;;7.57;;
39896;SDS011;25567;48.276;14.242;2022-09-09T15:45:49;12.90;;;7.30;;
39896;SDS011;25567;48.276;14.242;2022-09-09T15:48:29;15.90;;;7.85;;
39896;SDS011;25567;48.276;14.242;2022-09-09T15:51:02;14.32;;;7.32;;
39896;SDS011;25567;48.276;14.242;2022-09-09T15:53:54;15.05;;;7.55;;
39896;SDS011;25567;48.276;14.242;2022-09-09T15:56:22;15.07;;;7.03;;
39896;SDS011;25567;48.276;14.242;2022-09-09T15:58:50;14.00;;;6.43;;
39896;SDS011;25567;48.276;14.242;2022-09-09T16:01:18;13.70;;;6.78;;
39896;SDS011;25567;48.276;14.242;2022-09-09T16:03:45;16.50;;;7.22;;
39896;SDS011;25567;48.276;14.242;2022-09-09T16:06:13;16.92;;;7.35;;
39896;SDS011;25567;48.276;14.242;2022-09-09T16:08:42;16.50;;;7.40;;
39896;SDS011;25567;48.276;14.242;2022-09-09T16:11:12;15.65;;;7.25;;
39896;SDS011;25567;48.276;14.242;2022-09-09T16:13:42;14.07;;;7.93;;
39896;SDS011;25567;48.276;14.242;2022-09-09T16:16:16;15.00;;;7.80;;
39896;SDS011;25567;48.276;14.242;2022-09-09T16:18:46;17.63;;;7.53;;
39896;SDS011;25567;48.276;14.242;2022-09-09T16:23:43;16.25;;;7.28;;
39896;SDS011;25567;48.276;14.242;2022-09-09T16:26:11;12.48;;;7.15;;
39896;SDS011;25567;48.276;14.242;2022-09-09T16:28:38;15.30;;;7.82;;
39896;SDS011;25567;48.276;14.242;2022-09-09T16:31:06;16.65;;;7.65;;